< Typhoon 199007 1990 Season Typhoon 199009 >
Typhoon 199008 (STEVE)
General InformationTrack Information on Google MapsDetailed Wind InformationList of All Images || Disaster Info.ResourceGoogle EarthGE AnimationAtom FeedGeoJSON
Detalied Best Track (Time Zone = UTC)
Year Month Day Hour Lat. Long. Pressure (hPa) Wind (kt) Class Image Chart
1990 7 23 18 16.5 141.5 1004 0 2 Image Chart
1990 7 24 00 17.0 142.0 1004 0 2 Image Chart
1990 7 24 06 17.0 142.0 1004 0 2 Image Chart
1990 7 24 12 17.0 142.0 1004 0 2 Image Chart
1990 7 24 18 17.0 142.0 1004 0 2 Image Chart
1990 7 25 00 17.5 141.5 1004 0 2 Image Chart
1990 7 25 06 17.5 141.5 1004 0 2 Image Chart
1990 7 25 12 18.0 141.5 1004 0 2 Image Chart
1990 7 25 18 18.5 142.5 1004 0 2 Image Chart
1990 7 26 00 19.2 143.5 1000 35 3 Image Chart
1990 7 26 06 19.3 143.8 996 40 3 Image Chart
1990 7 26 12 19.5 144.1 992 45 3 Image Chart
1990 7 26 18 19.7 144.2 990 45 3 Image Chart
1990 7 27 00 19.9 144.6 985 50 4 Image Chart
1990 7 27 06 20.4 145.0 975 60 4 Image Chart
1990 7 27 12 21.0 145.1 970 65 5 Image Chart
1990 7 27 18 21.5 145.0 965 70 5 Image Chart
1990 7 28 00 22.2 145.0 955 75 5 Image Chart
1990 7 28 06 23.0 144.9 950 80 5 Image Chart
1990 7 28 12 23.5 144.9 945 85 5 Image Chart
1990 7 28 18 24.0 144.9 940 85 5 Image Chart
1990 7 29 00 24.5 144.7 940 85 5 Image Chart
1990 7 29 06 25.0 145.0 945 85 5 Image Chart
1990 7 29 12 25.3 145.6 950 80 5 Image Chart
1990 7 29 18 25.9 146.0 955 75 5 Image Chart
1990 7 30 00 26.5 146.5 965 70 5 Image Chart
1990 7 30 06 26.7 147.2 970 65 5 Image Chart
1990 7 30 12 26.8 148.1 970 65 5 Image Chart
1990 7 30 18 27.1 149.2 970 65 5 Image Chart
1990 7 31 00 28.0 150.5 970 65 5 Image Chart
1990 7 31 06 29.1 152.3 970 65 5 Image Chart
1990 7 31 12 29.9 153.9 970 65 5 Image Chart
1990 7 31 18 31.2 155.5 975 60 4 Image Chart
1990 8 1 00 32.9 156.9 980 55 4 Image Chart
1990 8 1 06 34.6 157.6 985 50 4 Image Chart
1990 8 1 12 36.0 158.1 985 50 4 Image Chart
1990 8 1 18 37.9 158.0 990 45 3 Image Chart
1990 8 2 00 40.0 158.2 992 40 3 Image Chart
1990 8 2 06 42.0 159.1 992 40 3 Image Chart
1990 8 2 12 44.0 160.0 992 0 6 Image Chart
1990 8 2 18 46.0 161.0 992 0 6 Image Chart
1990 8 3 00 48.0 162.0 988 0 6 Image Chart
1990 8 3 06 50.0 164.0 988 0 6 Image Chart
1990 8 3 12 52.0 166.0 982 0 6 Image Chart
1990 8 3 18 54.0 168.0 980 0 6 Image Chart
1990 8 4 00 55.0 170.0 980 0 6 Image Chart
1990 8 4 06 56.0 172.0 984 0 6 Image Chart
1990 8 4 12 57.0 175.0 984 0 6 Image Chart
1990 8 4 18 57.0 176.0 984 0 6 Image Chart
1990 8 5 00 58.0 177.0 984 0 6 Image Chart
1990 8 5 06 59.0 180.0 986 0 6 Image Chart
1990 8 5 12 58.0 182.0 986 0 6 Image Chart
Japan Meteorological Agency Best Track Data | Correction Date : 1992-10-21
< Typhoon 199007 1990 Season Typhoon 199009 >

Help